sensor_id;sensor_type;location;lat;lon;timestamp;temperature;humidity
10512;DHT22;5304;48.604;2.096;2023-05-07T00:02:18;14.40;99.90
10512;DHT22;5304;48.604;2.096;2023-05-07T00:05:03;14.30;99.90
10512;DHT22;5304;48.604;2.096;2023-05-07T00:07:47;14.30;99.90
10512;DHT22;5304;48.604;2.096;2023-05-07T00:10:32;14.30;99.90
10512;DHT22;5304;48.604;2.096;2023-05-07T00:13:16;14.30;99.90
10512;DHT22;5304;48.604;2.096;2023-05-07T00:16:02;14.20;99.90
10512;DHT22;5304;48.604;2.096;2023-05-07T00:18:47;14.30;99.90
10512;DHT22;5304;48.604;2.096;2023-05-07T00:21:31;14.20;99.90
10512;DHT22;5304;48.604;2.096;2023-05-07T00:24:15;14.20;99.90
10512;DHT22;5304;48.604;2.096;2023-05-07T00:27:00;14.20;99.90
10512;DHT22;5304;48.604;2.096;2023-05-07T00:29:44;14.30;99.90
10512;DHT22;5304;48.604;2.096;2023-05-07T00:32:28;14.30;99.90
10512;DHT22;5304;48.604;2.096;2023-05-07T00:35:13;14.30;99.90
10512;DHT22;5304;48.604;2.096;2023-05-07T00:37:57;14.30;99.90
10512;DHT22;5304;48.604;2.096;2023-05-07T00:40:42;14.30;99.90
10512;DHT22;5304;48.604;2.096;2023-05-07T00:43:26;14.20;99.90
10512;DHT22;5304;48.604;2.096;2023-05-07T00:46:11;14.20;99.90
10512;DHT22;5304;48.604;2.096;2023-05-07T00:48:56;14.20;99.90
10512;DHT22;5304;48.604;2.096;2023-05-07T00:51:41;14.20;99.90
10512;DHT22;5304;48.604;2.096;2023-05-07T00:54:26;14.30;99.90
10512;DHT22;5304;48.604;2.096;2023-05-07T00:57:11;14.20;99.90
10512;DHT22;5304;48.604;2.096;2023-05-07T00:59:55;14.20;99.90
10512;DHT22;5304;48.604;2.096;2023-05-07T01:02:39;14.20;99.90
10512;DHT22;5304;48.604;2.096;2023-05-07T01:05:25;14.20;99.90
10512;DHT22;5304;48.604;2.096;2023-05-07T01:08:12;14.20;99.90
10512;DHT22;5304;48.604;2.096;2023-05-07T01:10:58;14.20;99.90
10512;DHT22;5304;48.604;2.096;2023-05-07T01:13:43;14.20;99.90
10512;DHT22;5304;48.604;2.096;2023-05-07T01:16:28;14.20;99.90
10512;DHT22;5304;48.604;2.096;2023-05-07T01:19:15;14.20;99.90
10512;DHT22;5304;48.604;2.096;2023-05-07T01:22:08;14.20;99.90
10512;DHT22;5304;48.604;2.096;2023-05-07T01:24:53;14.10;99.90
10512;DHT22;5304;48.604;2.096;2023-05-07T01:27:40;14.20;99.90
10512;DHT22;5304;48.604;2.096;2023-05-07T01:30:24;14.10;99.90
10512;DHT22;5304;48.604;2.096;2023-05-07T01:33:11;14.20;99.90
10512;DHT22;5304;48.604;2.096;2023-05-07T01:35:57;14.20;99.90
10512;DHT22;5304;48.604;2.096;2023-05-07T01:38:44;14.30;99.90
10512;DHT22;5304;48.604;2.096;2023-05-07T01:41:29;14.30;99.90
10512;DHT22;5304;48.604;2.096;2023-05-07T01:44:15;14.30;99.90
10512;DHT22;5304;48.604;2.096;2023-05-07T01:47:01;14.30;99.90
10512;DHT22;5304;48.604;2.096;2023-05-07T01:49:46;14.30;99.90
10512;DHT22;5304;48.604;2.096;2023-05-07T01:52:31;14.30;99.90
10512;DHT22;5304;48.604;2.096;2023-05-07T01:55:15;14.30;99.90
10512;DHT22;5304;48.604;2.096;2023-05-07T01:58:00;14.20;99.90
10512;DHT22;5304;48.604;2.096;2023-05-07T02:00:45;14.20;99.90
10512;DHT22;5304;48.604;2.096;2023-05-07T02:03:29;14.30;99.90
10512;DHT22;5304;48.604;2.096;2023-05-07T02:06:15;14.30;99.90
10512;DHT22;5304;48.604;2.096;2023-05-07T02:08:59;14.20;99.90
10512;DHT22;5304;48.604;2.096;2023-05-07T02:11:44;14.20;99.90
10512;DHT22;5304;48.604;2.096;2023-05-07T02:14:28;14.20;99.90
10512;DHT22;5304;48.604;2.096;2023-05-07T02:17:13;14.20;99.90
10512;DHT22;5304;48.604;2.096;2023-05-07T02:19:57;14.10;99.90
10512;DHT22;5304;48.604;2.096;2023-05-07T02:22:42;14.10;99.90
10512;DHT22;5304;48.604;2.096;2023-05-07T02:25:26;14.20;99.90
10512;DHT22;5304;48.604;2.096;2023-05-07T02:28:11;14.30;99.90
10512;DHT22;5304;48.604;2.096;2023-05-07T02:30:55;14.20;99.90
10512;DHT22;5304;48.604;2.096;2023-05-07T02:33:42;14.20;99.90
10512;DHT22;5304;48.604;2.096;2023-05-07T02:36:27;14.20;99.90
10512;DHT22;5304;48.604;2.096;2023-05-07T02:39:12;14.30;99.90
10512;DHT22;5304;48.604;2.096;2023-05-07T02:41:57;14.20;99.90
10512;DHT22;5304;48.604;2.096;2023-05-07T02:44:41;14.30;99.90
10512;DHT22;5304;48.604;2.096;2023-05-07T02:47:26;14.20;99.90
10512;DHT22;5304;48.604;2.096;2023-05-07T02:50:13;14.30;99.90
10512;DHT22;5304;48.604;2.096;2023-05-07T02:52:58;14.30;99.90
10512;DHT22;5304;48.604;2.096;2023-05-07T02:55:42;14.30;99.90
10512;DHT22;5304;48.604;2.096;2023-05-07T02:58:27;14.30;99.90
10512;DHT22;5304;48.604;2.096;2023-05-07T03:01:11;14.30;99.90
10512;DHT22;5304;48.604;2.096;2023-05-07T03:03:56;14.30;99.90
10512;DHT22;5304;48.604;2.096;2023-05-07T03:06:40;14.30;99.90
10512;DHT22;5304;48.604;2.096;2023-05-07T03:09:25;14.20;99.90
10512;DHT22;5304;48.604;2.096;2023-05-07T03:12:09;14.30;99.90
10512;DHT22;5304;48.604;2.096;2023-05-07T03:14:53;14.30;99.90
10512;DHT22;5304;48.604;2.096;2023-05-07T03:17:38;14.20;99.90
10512;DHT22;5304;48.604;2.096;2023-05-07T03:20:23;14.20;99.90
10512;DHT22;5304;48.604;2.096;2023-05-07T03:23:07;14.20;99.90
10512;DHT22;5304;48.604;2.096;2023-05-07T03:25:52;14.30;99.90
10512;DHT22;5304;48.604;2.096;2023-05-07T03:28:37;14.20;99.90
10512;DHT22;5304;48.604;2.096;2023-05-07T03:31:21;14.20;99.90
10512;DHT22;5304;48.604;2.096;2023-05-07T03:34:06;14.20;99.90
10512;DHT22;5304;48.604;2.096;2023-05-07T03:36:54;14.20;99.90
10512;DHT22;5304;48.604;2.096;2023-05-07T03:39:38;14.20;99.90
10512;DHT22;5304;48.604;2.096;2023-05-07T03:42:23;14.20;99.90
10512;DHT22;5304;48.604;2.096;2023-05-07T03:45:08;14.20;99.90
10512;DHT22;5304;48.604;2.096;2023-05-07T03:47:52;14.20;99.90
10512;DHT22;5304;48.604;2.096;2023-05-07T03:50:37;14.20;99.90
10512;DHT22;5304;48.604;2.096;2023-05-07T03:53:22;14.20;99.90
10512;DHT22;5304;48.604;2.096;2023-05-07T03:56:06;14.20;99.90
10512;DHT22;5304;48.604;2.096;2023-05-07T03:58:50;14.20;99.90
10512;DHT22;5304;48.604;2.096;2023-05-07T04:01:35;14.20;99.90
10512;DHT22;5304;48.604;2.096;2023-05-07T04:04:20;14.20;99.90
10512;DHT22;5304;48.604;2.096;2023-05-07T04:07:05;14.20;99.90
10512;DHT22;5304;48.604;2.096;2023-05-07T04:09:49;14.20;99.90
10512;DHT22;5304;48.604;2.096;2023-05-07T04:12:34;14.20;99.90
10512;DHT22;5304;48.604;2.096;2023-05-07T04:15:18;14.20;99.90
10512;DHT22;5304;48.604;2.096;2023-05-07T04:18:02;14.30;99.90
10512;DHT22;5304;48.604;2.096;2023-05-07T04:20:49;14.30;99.90
10512;DHT22;5304;48.604;2.096;2023-05-07T04:23:33;14.20;99.90
10512;DHT22;5304;48.604;2.096;2023-05-07T04:26:18;14.30;99.90
10512;DHT22;5304;48.604;2.096;2023-05-07T04:29:03;14.30;99.90
10512;DHT22;5304;48.604;2.096;2023-05-07T04:31:48;14.20;99.90
10512;DHT22;5304;48.604;2.096;2023-05-07T04:34:32;14.20;99.90
10512;DHT22;5304;48.604;2.096;2023-05-07T04:37:17;14.30;99.90
10512;DHT22;5304;48.604;2.096;2023-05-07T04:40:01;14.20;99.90
10512;DHT22;5304;48.604;2.096;2023-05-07T04:42:47;14.10;99.90
10512;DHT22;5304;48.604;2.096;2023-05-07T04:45:31;14.10;99.90
10512;DHT22;5304;48.604;2.096;2023-05-07T04:48:15;14.10;99.90
10512;DHT22;5304;48.604;2.096;2023-05-07T04:51:03;14.10;99.90
10512;DHT22;5304;48.604;2.096;2023-05-07T04:53:48;14.10;99.90
10512;DHT22;5304;48.604;2.096;2023-05-07T04:56:33;14.10;99.90
10512;DHT22;5304;48.604;2.096;2023-05-07T04:59:17;14.10;99.90
10512;DHT22;5304;48.604;2.096;2023-05-07T05:02:02;14.00;99.90
10512;DHT22;5304;48.604;2.096;2023-05-07T05:04:48;14.10;99.90
10512;DHT22;5304;48.604;2.096;2023-05-07T05:07:33;14.00;99.90
10512;DHT22;5304;48.604;2.096;2023-05-07T05:10:17;14.00;99.90
10512;DHT22;5304;48.604;2.096;2023-05-07T05:13:01;14.00;99.90
10512;DHT22;5304;48.604;2.096;2023-05-07T05:15:46;14.00;99.90
10512;DHT22;5304;48.604;2.096;2023-05-07T05:18:30;14.10;99.90
10512;DHT22;5304;48.604;2.096;2023-05-07T05:21:15;14.10;99.90
10512;DHT22;5304;48.604;2.096;2023-05-07T05:23:59;14.10;99.90
10512;DHT22;5304;48.604;2.096;2023-05-07T05:26:44;14.00;99.90
10512;DHT22;5304;48.604;2.096;2023-05-07T05:29:28;14.10;99.90
10512;DHT22;5304;48.604;2.096;2023-05-07T05:32:14;14.20;99.90
10512;DHT22;5304;48.604;2.096;2023-05-07T05:34:58;14.10;99.90
10512;DHT22;5304;48.604;2.096;2023-05-07T05:37:42;14.10;99.90
10512;DHT22;5304;48.604;2.096;2023-05-07T05:40:27;14.30;99.90
10512;DHT22;5304;48.604;2.096;2023-05-07T05:43:11;14.30;99.90
10512;DHT22;5304;48.604;2.096;2023-05-07T05:45:56;14.20;99.90
10512;DHT22;5304;48.604;2.096;2023-05-07T05:48:41;14.40;99.90
10512;DHT22;5304;48.604;2.096;2023-05-07T05:51:26;14.40;99.90
10512;DHT22;5304;48.604;2.096;2023-05-07T05:54:10;14.30;99.90
10512;DHT22;5304;48.604;2.096;2023-05-07T05:56:57;14.30;99.90
10512;DHT22;5304;48.604;2.096;2023-05-07T05:59:41;14.40;99.90
10512;DHT22;5304;48.604;2.096;2023-05-07T06:02:26;14.40;99.90
10512;DHT22;5304;48.604;2.096;2023-05-07T06:05:11;14.30;99.90
10512;DHT22;5304;48.604;2.096;2023-05-07T06:07:56;14.30;99.90
10512;DHT22;5304;48.604;2.096;2023-05-07T06:10:40;14.30;99.90
10512;DHT22;5304;48.604;2.096;2023-05-07T06:13:24;14.30;99.90
10512;DHT22;5304;48.604;2.096;2023-05-07T06:16:09;14.30;99.90
10512;DHT22;5304;48.604;2.096;2023-05-07T06:18:53;14.40;99.90
10512;DHT22;5304;48.604;2.096;2023-05-07T06:21:39;14.40;99.90
10512;DHT22;5304;48.604;2.096;2023-05-07T06:24:24;14.50;99.90
10512;DHT22;5304;48.604;2.096;2023-05-07T06:27:08;14.50;99.90
10512;DHT22;5304;48.604;2.096;2023-05-07T06:29:53;14.40;99.90
10512;DHT22;5304;48.604;2.096;2023-05-07T06:32:39;14.40;99.90
10512;DHT22;5304;48.604;2.096;2023-05-07T06:35:24;14.40;99.90
10512;DHT22;5304;48.604;2.096;2023-05-07T06:38:09;14.50;99.90
10512;DHT22;5304;48.604;2.096;2023-05-07T06:40:53;14.60;99.90
10512;DHT22;5304;48.604;2.096;2023-05-07T06:43:40;14.60;99.90
10512;DHT22;5304;48.604;2.096;2023-05-07T06:46:24;14.60;99.90
10512;DHT22;5304;48.604;2.096;2023-05-07T06:49:08;14.60;99.90
10512;DHT22;5304;48.604;2.096;2023-05-07T06:51:53;14.70;99.90
10512;DHT22;5304;48.604;2.096;2023-05-07T06:54:38;14.70;99.90
10512;DHT22;5304;48.604;2.096;2023-05-07T06:57:22;14.70;99.90
10512;DHT22;5304;48.604;2.096;2023-05-07T07:00:07;14.70;99.90
10512;DHT22;5304;48.604;2.096;2023-05-07T07:02:55;14.70;99.90
10512;DHT22;5304;48.604;2.096;2023-05-07T07:05:42;14.70;99.90
10512;DHT22;5304;48.604;2.096;2023-05-07T07:08:27;14.70;99.90
10512;DHT22;5304;48.604;2.096;2023-05-07T07:11:11;14.70;99.90
10512;DHT22;5304;48.604;2.096;2023-05-07T07:13:55;14.80;99.90
10512;DHT22;5304;48.604;2.096;2023-05-07T07:16:40;14.80;99.90
10512;DHT22;5304;48.604;2.096;2023-05-07T07:19:25;14.90;99.90
10512;DHT22;5304;48.604;2.096;2023-05-07T07:22:10;15.00;99.90
10512;DHT22;5304;48.604;2.096;2023-05-07T07:24:55;15.00;99.90
10512;DHT22;5304;48.604;2.096;2023-05-07T07:27:39;15.10;99.90
10512;DHT22;5304;48.604;2.096;2023-05-07T07:30:24;15.20;99.90
10512;DHT22;5304;48.604;2.096;2023-05-07T07:33:10;15.30;99.90
10512;DHT22;5304;48.604;2.096;2023-05-07T07:35:55;15.40;99.90
10512;DHT22;5304;48.604;2.096;2023-05-07T07:38:40;15.50;99.90
10512;DHT22;5304;48.604;2.096;2023-05-07T07:41:24;15.60;99.90
10512;DHT22;5304;48.604;2.096;2023-05-07T07:44:09;15.60;99.90
10512;DHT22;5304;48.604;2.096;2023-05-07T07:46:56;15.60;99.90
10512;DHT22;5304;48.604;2.096;2023-05-07T07:49:41;15.70;99.90
10512;DHT22;5304;48.604;2.096;2023-05-07T07:52:25;15.60;99.90
10512;DHT22;5304;48.604;2.096;2023-05-07T07:55:10;15.70;99.90
10512;DHT22;5304;48.604;2.096;2023-05-07T07:57:55;15.70;99.90
10512;DHT22;5304;48.604;2.096;2023-05-07T08:00:40;15.80;99.90
10512;DHT22;5304;48.604;2.096;2023-05-07T08:03:25;15.80;99.90
10512;DHT22;5304;48.604;2.096;2023-05-07T08:06:09;15.90;99.90
10512;DHT22;5304;48.604;2.096;2023-05-07T08:08:54;15.80;99.90
10512;DHT22;5304;48.604;2.096;2023-05-07T08:11:39;15.80;99.90
10512;DHT22;5304;48.604;2.096;2023-05-07T08:14:24;15.90;99.90
10512;DHT22;5304;48.604;2.096;2023-05-07T08:17:08;15.90;99.90
10512;DHT22;5304;48.604;2.096;2023-05-07T08:19:54;15.90;99.90
10512;DHT22;5304;48.604;2.096;2023-05-07T08:22:38;15.90;99.90
10512;DHT22;5304;48.604;2.096;2023-05-07T08:25:24;15.90;99.90
10512;DHT22;5304;48.604;2.096;2023-05-07T08:28:09;16.00;99.90
10512;DHT22;5304;48.604;2.096;2023-05-07T08:30:53;15.90;99.90
10512;DHT22;5304;48.604;2.096;2023-05-07T08:33:38;16.00;99.90
10512;DHT22;5304;48.604;2.096;2023-05-07T08:36:22;16.00;99.90
10512;DHT22;5304;48.604;2.096;2023-05-07T08:39:07;16.00;99.90
10512;DHT22;5304;48.604;2.096;2023-05-07T08:41:55;16.00;99.90
10512;DHT22;5304;48.604;2.096;2023-05-07T08:44:42;16.00;99.90
10512;DHT22;5304;48.604;2.096;2023-05-07T08:47:35;16.10;99.90
10512;DHT22;5304;48.604;2.096;2023-05-07T08:50:23;16.10;99.90
10512;DHT22;5304;48.604;2.096;2023-05-07T08:53:08;16.20;99.90
10512;DHT22;5304;48.604;2.096;2023-05-07T08:55:53;16.20;99.90
10512;DHT22;5304;48.604;2.096;2023-05-07T08:58:37;16.30;99.90
10512;DHT22;5304;48.604;2.096;2023-05-07T09:01:22;16.30;99.90
10512;DHT22;5304;48.604;2.096;2023-05-07T09:04:06;16.20;99.90
10512;DHT22;5304;48.604;2.096;2023-05-07T09:06:50;16.20;99.90
10512;DHT22;5304;48.604;2.096;2023-05-07T09:09:36;16.20;99.90
10512;DHT22;5304;48.604;2.096;2023-05-07T09:12:21;16.20;99.90
10512;DHT22;5304;48.604;2.096;2023-05-07T09:15:06;16.30;99.90
10512;DHT22;5304;48.604;2.096;2023-05-07T09:17:50;16.40;99.90
10512;DHT22;5304;48.604;2.096;2023-05-07T09:20:41;16.50;99.90
10512;DHT22;5304;48.604;2.096;2023-05-07T09:23:26;16.60;99.90
10512;DHT22;5304;48.604;2.096;2023-05-07T09:26:10;16.70;99.90
10512;DHT22;5304;48.604;2.096;2023-05-07T09:28:56;16.80;99.90
10512;DHT22;5304;48.604;2.096;2023-05-07T09:31:40;16.90;99.90
10512;DHT22;5304;48.604;2.096;2023-05-07T09:34:24;16.90;99.90
10512;DHT22;5304;48.604;2.096;2023-05-07T09:37:08;16.90;99.90
10512;DHT22;5304;48.604;2.096;2023-05-07T09:39:54;17.00;99.90
10512;DHT22;5304;48.604;2.096;2023-05-07T09:42:39;17.10;99.90
10512;DHT22;5304;48.604;2.096;2023-05-07T09:45:27;17.20;99.90
10512;DHT22;5304;48.604;2.096;2023-05-07T09:48:13;17.40;99.90
10512;DHT22;5304;48.604;2.096;2023-05-07T09:51:02;17.50;99.90
10512;DHT22;5304;48.604;2.096;2023-05-07T09:53:51;17.40;99.90
10512;DHT22;5304;48.604;2.096;2023-05-07T09:56:36;17.30;99.90
10512;DHT22;5304;48.604;2.096;2023-05-07T09:59:22;17.30;99.90
10512;DHT22;5304;48.604;2.096;2023-05-07T10:02:09;17.30;99.90
10512;DHT22;5304;48.604;2.096;2023-05-07T10:04:57;17.20;99.90
10512;DHT22;5304;48.604;2.096;2023-05-07T10:07:45;17.10;99.90
10512;DHT22;5304;48.604;2.096;2023-05-07T10:10:32;17.20;99.90
10512;DHT22;5304;48.604;2.096;2023-05-07T10:13:18;17.20;99.90
10512;DHT22;5304;48.604;2.096;2023-05-07T10:16:06;17.20;99.90
10512;DHT22;5304;48.604;2.096;2023-05-07T10:18:54;17.30;99.90
10512;DHT22;5304;48.604;2.096;2023-05-07T10:21:54;17.30;99.90
10512;DHT22;5304;48.604;2.096;2023-05-07T10:24:39;17.30;99.90
10512;DHT22;5304;48.604;2.096;2023-05-07T10:27:24;17.40;99.90
10512;DHT22;5304;48.604;2.096;2023-05-07T10:30:19;17.50;99.90
10512;DHT22;5304;48.604;2.096;2023-05-07T10:33:09;17.90;99.90
10512;DHT22;5304;48.604;2.096;2023-05-07T10:35:58;18.30;99.90
10512;DHT22;5304;48.604;2.096;2023-05-07T10:38:43;19.00;99.90
10512;DHT22;5304;48.604;2.096;2023-05-07T10:41:28;19.60;99.90
10512;DHT22;5304;48.604;2.096;2023-05-07T10:44:25;19.80;99.90
10512;DHT22;5304;48.604;2.096;2023-05-07T10:47:11;20.00;99.90
10512;DHT22;5304;48.604;2.096;2023-05-07T11:02:05;20.80;99.90
10512;DHT22;5304;48.604;2.096;2023-05-07T11:05:21;20.90;99.90
10512;DHT22;5304;48.604;2.096;2023-05-07T11:08:06;21.50;99.90
10512;DHT22;5304;48.604;2.096;2023-05-07T11:10:56;21.60;99.90
10512;DHT22;5304;48.604;2.096;2023-05-07T11:13:47;21.60;99.90
10512;DHT22;5304;48.604;2.096;2023-05-07T11:16:32;21.30;99.90
10512;DHT22;5304;48.604;2.096;2023-05-07T11:19:50;21.10;99.90
10512;DHT22;5304;48.604;2.096;2023-05-07T11:25:21;20.70;99.90
10512;DHT22;5304;48.604;2.096;2023-05-07T11:28:10;20.50;99.90
10512;DHT22;5304;48.604;2.096;2023-05-07T11:30:54;20.20;99.90
10512;DHT22;5304;48.604;2.096;2023-05-07T11:33:40;19.90;99.90
10512;DHT22;5304;48.604;2.096;2023-05-07T11:36:32;19.80;99.90
10512;DHT22;5304;48.604;2.096;2023-05-07T11:39:31;19.70;99.90
10512;DHT22;5304;48.604;2.096;2023-05-07T11:42:34;19.50;99.90
10512;DHT22;5304;48.604;2.096;2023-05-07T11:45:23;19.20;99.90
10512;DHT22;5304;48.604;2.096;2023-05-07T11:48:12;18.80;99.90
10512;DHT22;5304;48.604;2.096;2023-05-07T11:51:05;18.60;99.90
10512;DHT22;5304;48.604;2.096;2023-05-07T11:53:50;18.40;99.90
10512;DHT22;5304;48.604;2.096;2023-05-07T11:56:35;18.40;99.90
10512;DHT22;5304;48.604;2.096;2023-05-07T11:59:19;18.40;99.90
10512;DHT22;5304;48.604;2.096;2023-05-07T12:02:04;18.40;99.90
10512;DHT22;5304;48.604;2.096;2023-05-07T12:04:48;18.40;99.90
10512;DHT22;5304;48.604;2.096;2023-05-07T12:07:34;18.40;99.90
10512;DHT22;5304;48.604;2.096;2023-05-07T12:10:20;18.30;99.90
10512;DHT22;5304;48.604;2.096;2023-05-07T12:13:20;18.30;99.90
10512;DHT22;5304;48.604;2.096;2023-05-07T12:16:08;18.20;99.90
10512;DHT22;5304;48.604;2.096;2023-05-07T12:18:53;18.20;99.90
10512;DHT22;5304;48.604;2.096;2023-05-07T12:21:39;18.10;99.90
10512;DHT22;5304;48.604;2.096;2023-05-07T12:24:24;18.00;99.90
10512;DHT22;5304;48.604;2.096;2023-05-07T12:27:09;18.00;99.90
10512;DHT22;5304;48.604;2.096;2023-05-07T12:29:53;17.90;99.90
10512;DHT22;5304;48.604;2.096;2023-05-07T12:32:38;17.60;99.90
10512;DHT22;5304;48.604;2.096;2023-05-07T12:35:28;17.50;99.90
10512;DHT22;5304;48.604;2.096;2023-05-07T12:38:15;17.30;99.90
10512;DHT22;5304;48.604;2.096;2023-05-07T12:41:00;17.20;99.90
10512;DHT22;5304;48.604;2.096;2023-05-07T12:43:44;17.10;99.90
10512;DHT22;5304;48.604;2.096;2023-05-07T12:46:29;17.10;99.90
10512;DHT22;5304;48.604;2.096;2023-05-07T12:49:14;16.90;99.90
10512;DHT22;5304;48.604;2.096;2023-05-07T12:51:58;16.90;99.90
10512;DHT22;5304;48.604;2.096;2023-05-07T12:54:44;16.90;99.90
10512;DHT22;5304;48.604;2.096;2023-05-07T12:57:28;16.70;99.90
10512;DHT22;5304;48.604;2.096;2023-05-07T13:00:13;16.60;99.90
10512;DHT22;5304;48.604;2.096;2023-05-07T13:02:58;16.50;99.90
10512;DHT22;5304;48.604;2.096;2023-05-07T13:05:42;16.40;99.90
10512;DHT22;5304;48.604;2.096;2023-05-07T13:08:36;16.40;99.90
10512;DHT22;5304;48.604;2.096;2023-05-07T13:11:22;16.40;99.90
10512;DHT22;5304;48.604;2.096;2023-05-07T13:14:08;16.40;99.90
10512;DHT22;5304;48.604;2.096;2023-05-07T13:16:52;16.40;99.90
10512;DHT22;5304;48.604;2.096;2023-05-07T13:19:36;16.40;99.90
10512;DHT22;5304;48.604;2.096;2023-05-07T13:22:21;16.40;99.90
10512;DHT22;5304;48.604;2.096;2023-05-07T13:25:06;16.40;99.90
10512;DHT22;5304;48.604;2.096;2023-05-07T13:27:51;16.40;99.90
10512;DHT22;5304;48.604;2.096;2023-05-07T13:30:35;16.40;99.90
10512;DHT22;5304;48.604;2.096;2023-05-07T13:33:20;16.50;99.90
10512;DHT22;5304;48.604;2.096;2023-05-07T13:36:05;16.50;99.90
10512;DHT22;5304;48.604;2.096;2023-05-07T13:38:50;16.50;99.90
10512;DHT22;5304;48.604;2.096;2023-05-07T13:41:35;16.60;99.90
10512;DHT22;5304;48.604;2.096;2023-05-07T13:44:20;16.60;99.90
10512;DHT22;5304;48.604;2.096;2023-05-07T13:47:05;16.60;99.90
10512;DHT22;5304;48.604;2.096;2023-05-07T13:49:49;16.80;99.90
10512;DHT22;5304;48.604;2.096;2023-05-07T13:52:34;16.80;99.90
10512;DHT22;5304;48.604;2.096;2023-05-07T13:55:22;16.90;99.90
10512;DHT22;5304;48.604;2.096;2023-05-07T13:58:08;17.10;99.90
10512;DHT22;5304;48.604;2.096;2023-05-07T14:00:53;17.20;99.90
10512;DHT22;5304;48.604;2.096;2023-05-07T14:03:38;17.20;99.90
10512;DHT22;5304;48.604;2.096;2023-05-07T14:06:23;17.30;99.90
10512;DHT22;5304;48.604;2.096;2023-05-07T14:09:08;17.40;99.90
10512;DHT22;5304;48.604;2.096;2023-05-07T14:11:52;17.50;99.90
10512;DHT22;5304;48.604;2.096;2023-05-07T14:14:36;17.60;99.90
10512;DHT22;5304;48.604;2.096;2023-05-07T14:17:21;17.70;99.90
10512;DHT22;5304;48.604;2.096;2023-05-07T14:20:07;17.90;99.90
10512;DHT22;5304;48.604;2.096;2023-05-07T14:22:52;18.10;99.90
10512;DHT22;5304;48.604;2.096;2023-05-07T14:25:36;18.20;99.90
10512;DHT22;5304;48.604;2.096;2023-05-07T14:28:21;18.30;99.90
10512;DHT22;5304;48.604;2.096;2023-05-07T14:31:05;18.40;99.90
10512;DHT22;5304;48.604;2.096;2023-05-07T14:33:50;18.50;99.90
10512;DHT22;5304;48.604;2.096;2023-05-07T14:36:34;18.40;99.90
10512;DHT22;5304;48.604;2.096;2023-05-07T14:39:19;18.40;99.90
10512;DHT22;5304;48.604;2.096;2023-05-07T14:42:03;18.40;99.90
10512;DHT22;5304;48.604;2.096;2023-05-07T14:44:51;18.30;99.90
10512;DHT22;5304;48.604;2.096;2023-05-07T14:47:37;18.30;99.90
10512;DHT22;5304;48.604;2.096;2023-05-07T14:50:21;18.30;99.90
10512;DHT22;5304;48.604;2.096;2023-05-07T14:53:05;18.40;99.90
10512;DHT22;5304;48.604;2.096;2023-05-07T14:55:50;18.30;99.90
10512;DHT22;5304;48.604;2.096;2023-05-07T14:58:34;18.30;99.90
10512;DHT22;5304;48.604;2.096;2023-05-07T15:01:20;18.30;99.90
10512;DHT22;5304;48.604;2.096;2023-05-07T15:04:04;18.30;99.90
10512;DHT22;5304;48.604;2.096;2023-05-07T15:06:48;18.20;99.90
10512;DHT22;5304;48.604;2.096;2023-05-07T15:09:33;18.30;99.90
10512;DHT22;5304;48.604;2.096;2023-05-07T15:12:17;18.20;99.90
10512;DHT22;5304;48.604;2.096;2023-05-07T15:15:02;18.20;99.90
10512;DHT22;5304;48.604;2.096;2023-05-07T15:17:46;18.30;99.90
10512;DHT22;5304;48.604;2.096;2023-05-07T15:20:30;18.30;99.90
10512;DHT22;5304;48.604;2.096;2023-05-07T15:23:15;18.30;99.90
10512;DHT22;5304;48.604;2.096;2023-05-07T15:26:00;18.40;99.90
10512;DHT22;5304;48.604;2.096;2023-05-07T15:28:45;18.40;99.90
10512;DHT22;5304;48.604;2.096;2023-05-07T15:31:30;18.40;99.90
10512;DHT22;5304;48.604;2.096;2023-05-07T15:34:16;18.50;99.90
10512;DHT22;5304;48.604;2.096;2023-05-07T15:37:00;18.60;99.90
10512;DHT22;5304;48.604;2.096;2023-05-07T15:39:45;18.70;99.90
10512;DHT22;5304;48.604;2.096;2023-05-07T15:42:29;18.80;99.90
10512;DHT22;5304;48.604;2.096;2023-05-07T15:45:13;19.10;99.90
10512;DHT22;5304;48.604;2.096;2023-05-07T15:47:58;19.30;99.90
10512;DHT22;5304;48.604;2.096;2023-05-07T15:50:43;19.50;99.90
10512;DHT22;5304;48.604;2.096;2023-05-07T15:53:27;19.60;99.90
10512;DHT22;5304;48.604;2.096;2023-05-07T15:56:11;19.60;99.90
10512;DHT22;5304;48.604;2.096;2023-05-07T15:58:56;19.80;99.90
10512;DHT22;5304;48.604;2.096;2023-05-07T16:01:41;19.80;99.90
10512;DHT22;5304;48.604;2.096;2023-05-07T16:04:26;19.70;99.90
10512;DHT22;5304;48.604;2.096;2023-05-07T16:07:11;19.60;99.90
10512;DHT22;5304;48.604;2.096;2023-05-07T16:09:55;19.50;99.90
10512;DHT22;5304;48.604;2.096;2023-05-07T16:12:40;19.40;99.90
10512;DHT22;5304;48.604;2.096;2023-05-07T16:15:25;19.30;99.90
10512;DHT22;5304;48.604;2.096;2023-05-07T16:18:09;19.20;99.90
10512;DHT22;5304;48.604;2.096;2023-05-07T16:20:55;19.00;99.90
10512;DHT22;5304;48.604;2.096;2023-05-07T16:23:41;19.00;99.90
10512;DHT22;5304;48.604;2.096;2023-05-07T16:26:25;18.90;99.90
10512;DHT22;5304;48.604;2.096;2023-05-07T16:29:10;18.80;99.90
10512;DHT22;5304;48.604;2.096;2023-05-07T16:31:56;18.70;99.90
10512;DHT22;5304;48.604;2.096;2023-05-07T16:34:40;18.70;99.90
10512;DHT22;5304;48.604;2.096;2023-05-07T16:37:25;18.70;99.90
10512;DHT22;5304;48.604;2.096;2023-05-07T16:40:09;18.60;99.90
10512;DHT22;5304;48.604;2.096;2023-05-07T16:42:54;18.50;99.90
10512;DHT22;5304;48.604;2.096;2023-05-07T16:45:38;18.60;99.90
10512;DHT22;5304;48.604;2.096;2023-05-07T16:48:22;18.50;99.90
10512;DHT22;5304;48.604;2.096;2023-05-07T16:51:07;18.50;99.90
10512;DHT22;5304;48.604;2.096;2023-05-07T16:53:52;18.50;99.90
10512;DHT22;5304;48.604;2.096;2023-05-07T16:56:37;18.50;99.90
10512;DHT22;5304;48.604;2.096;2023-05-07T16:59:22;18.60;99.90
10512;DHT22;5304;48.604;2.096;2023-05-07T17:02:07;18.60;99.90
10512;DHT22;5304;48.604;2.096;2023-05-07T17:04:53;18.60;99.90
10512;DHT22;5304;48.604;2.096;2023-05-07T17:07:38;18.60;99.90
10512;DHT22;5304;48.604;2.096;2023-05-07T17:10:26;18.60;99.90
10512;DHT22;5304;48.604;2.096;2023-05-07T17:13:11;18.60;99.90
10512;DHT22;5304;48.604;2.096;2023-05-07T17:15:55;18.60;99.90
10512;DHT22;5304;48.604;2.096;2023-05-07T17:18:39;18.60;99.90
10512;DHT22;5304;48.604;2.096;2023-05-07T17:21:24;18.70;99.90
10512;DHT22;5304;48.604;2.096;2023-05-07T17:24:09;18.80;99.90
10512;DHT22;5304;48.604;2.096;2023-05-07T17:26:54;18.80;99.90
10512;DHT22;5304;48.604;2.096;2023-05-07T17:29:39;18.70;99.90
10512;DHT22;5304;48.604;2.096;2023-05-07T17:32:24;18.70;99.90
10512;DHT22;5304;48.604;2.096;2023-05-07T17:35:09;18.60;99.90
10512;DHT22;5304;48.604;2.096;2023-05-07T17:37:53;18.50;99.90
10512;DHT22;5304;48.604;2.096;2023-05-07T17:40:37;18.40;99.90
10512;DHT22;5304;48.604;2.096;2023-05-07T17:43:22;18.30;99.90
10512;DHT22;5304;48.604;2.096;2023-05-07T17:46:07;18.20;99.90
10512;DHT22;5304;48.604;2.096;2023-05-07T17:48:52;18.10;99.90
10512;DHT22;5304;48.604;2.096;2023-05-07T17:51:36;18.00;99.90
10512;DHT22;5304;48.604;2.096;2023-05-07T17:54:20;18.00;99.90
10512;DHT22;5304;48.604;2.096;2023-05-07T17:57:07;18.00;99.90